Time;durP1;ratioP1;P1;durP2;ratioP2;P2;SDS_P1;SDS_P2;PMS_P1;PMS_P2;Temp;Humidity;BMP_temperature;BMP_pressure;BME280_temperature;BME280_humidity;BME280_pressure;Samples;Min_cycle;Max_cycle;Signal;HPM_P1;HPM_P2
2023/04/27 00:02:12;;;;;;;3.83;3.10;;;;;;;6.69;49.52;99102.44;5100735;28;41718;-78
2023/04/27 00:04:40;;;;;;;2.87;2.67;;;;;;;6.69;50.03;99096.31;5096126;28;43162;-81
2023/04/27 00:07:07;;;;;;;2.87;2.23;;;;;;;6.68;49.93;99097.22;5079494;28;41318;-83
2023/04/27 00:09:35;;;;;;;3.27;2.57;;;;;;;6.67;49.76;99093.78;5096303;28;40004;-84
2023/04/27 00:12:03;;;;;;;3.50;2.33;;;;;;;6.65;50.06;99095.59;5079488;28;40957;-78
2023/04/27 00:14:30;;;;;;;5.47;2.83;;;;;;;6.64;50.26;99093.91;5114108;28;42672;-83
2023/04/27 00:16:59;;;;;;;4.70;3.37;;;;;;;6.52;50.13;99078.63;5114428;28;42324;-79
2023/04/27 00:19:29;;;;;;;4.53;2.60;;;;;;;6.59;50.25;99085.31;5096307;28;40970;-76
2023/04/27 00:21:58;;;;;;;3.20;2.50;;;;;;;6.57;50.48;99092.44;5113839;28;41843;-80
2023/04/27 00:24:26;;;;;;;4.30;2.70;;;;;;;6.55;50.68;99083.78;5095430;28;41789;-83
2023/04/27 00:26:53;;;;;;;2.47;2.20;;;;;;;6.25;50.44;99041.19;5096066;28;42354;-81
2023/04/27 00:29:21;;;;;;;3.70;2.40;;;;;;;6.53;50.65;99082.13;5095581;28;41027;-81
2023/04/27 00:31:49;;;;;;;2.73;2.20;;;;;;;6.50;50.86;99067.31;5095455;28;42627;-78
2023/04/27 00:34:19;;;;;;;4.17;2.63;;;;;;;6.46;51.03;99068.34;5113925;28;42816;-76
2023/04/27 00:36:48;;;;;;;3.90;2.80;;;;;;;6.46;51.00;99070.97;5110850;28;42601;-80
2023/04/27 00:39:16;;;;;;;3.20;2.50;;;;;;;6.46;51.06;99079.72;5078436;28;39732;-81
2023/04/27 00:41:44;;;;;;;4.27;2.80;;;;;;;6.49;50.97;99068.22;5095501;28;41756;-78
2023/04/27 00:44:12;;;;;;;2.57;2.07;;;;;;;6.53;51.18;99075.09;5078411;28;41899;-81
2023/04/27 00:46:40;;;;;;;5.50;3.47;;;;;;;6.58;51.91;99067.81;5095180;28;42367;-78
2023/04/27 00:49:08;;;;;;;4.00;3.07;;;;;;;6.62;51.57;99069.41;5095273;28;40905;-83
2023/04/27 00:51:37;;;;;;;4.40;3.13;;;;;;;6.70;51.27;99072.56;5077898;28;41685;-77
2023/04/27 00:54:05;;;;;;;5.57;3.57;;;;;;;6.75;51.10;99075.84;5095138;28;42815;-81
2023/04/27 00:56:32;;;;;;;3.50;3.20;;;;;;;6.77;51.27;99074.03;5095323;28;42029;-74
2023/04/27 00:59:00;;;;;;;4.23;3.20;;;;;;;6.64;51.43;99048.31;5095037;28;41057;-77
2023/04/27 01:01:29;;;;;;;3.77;3.17;;;;;;;6.79;52.20;99066.06;5095254;28;41697;-78
2023/04/27 01:03:57;;;;;;;4.07;3.70;;;;;;;6.77;52.17;99071.41;5094849;28;43618;-78
2023/04/27 01:06:27;;;;;;;4.93;3.90;;;;;;;6.72;52.00;99069.88;5095316;28;42189;-80
2023/04/27 01:08:56;;;;;;;3.80;3.03;;;;;;;6.71;51.74;99071.66;5094809;28;40040;-80
2023/04/27 01:11:24;;;;;;;3.47;2.97;;;;;;;6.67;52.09;99067.44;5095076;28;41541;-81
2023/04/27 01:13:52;;;;;;;5.30;3.80;;;;;;;6.57;52.26;99054.72;5112719;28;44041;-79
2023/04/27 01:16:19;;;;;;;5.33;3.73;;;;;;;6.55;52.06;99060.09;5079766;28;42385;-76
2023/04/27 01:18:48;;;;;;;4.83;3.63;;;;;;;6.41;52.29;99044.03;5096682;28;39975;-81
2023/04/27 01:21:15;;;;;;;5.73;3.80;;;;;;;6.57;52.51;99076.63;5079407;28;40487;-79
2023/04/27 01:23:44;;;;;;;5.63;3.77;;;;;;;6.54;52.06;99078.56;5078667;28;41807;-80
2023/04/27 01:26:15;;;;;;;5.60;4.03;;;;;;;6.50;52.23;99067.31;5078113;28;41316;-83
2023/04/27 01:28:42;;;;;;;4.93;3.77;;;;;;;6.47;52.51;99076.19;5077906;28;40024;-76
2023/04/27 01:31:11;;;;;;;4.37;3.47;;;;;;;6.45;52.40;99080.66;5077937;28;41754;-81
2023/04/27 01:33:39;;;;;;;5.27;3.60;;;;;;;6.42;52.55;99079.94;5077509;28;41707;-81
2023/04/27 01:36:08;;;;;;;4.20;3.27;;;;;;;6.40;52.76;99079.16;5077837;28;41308;-79
2023/04/27 01:38:36;;;;;;;3.93;3.07;;;;;;;6.33;52.82;99073.28;5094332;28;41773;-77
2023/04/27 01:41:07;;;;;;;3.20;2.90;;;;;;;6.36;52.80;99074.94;5094651;28;41826;-81
2023/04/27 01:43:36;;;;;;;3.00;2.80;;;;;;;6.33;52.87;99072.41;5077388;28;42149;-84
2023/04/27 01:46:09;;;;;;;3.37;2.80;;;;;;;6.29;52.92;99076.13;5077761;28;42339;-80
2023/04/27 01:48:38;;;;;;;3.70;2.80;;;;;;;6.11;53.15;99049.66;5094221;28;40923;-81
2023/04/27 01:51:06;;;;;;;3.67;3.23;;;;;;;6.15;53.32;99062.69;5077851;28;40410;-79
2023/04/27 01:53:34;;;;;;;5.20;2.90;;;;;;;6.13;53.05;99062.75;5077378;28;41719;-82
2023/04/27 01:56:02;;;;;;;4.70;3.10;;;;;;;6.12;53.06;99074.16;5077761;28;41413;-78
2023/04/27 01:58:31;;;;;;;4.50;2.83;;;;;;;6.18;53.33;99086.22;5076953;28;39778;-81
2023/04/27 02:00:59;;;;;;;6.33;3.00;;;;;;;6.02;53.36;99052.66;5077427;28;41664;-79
2023/04/27 02:03:26;;;;;;;4.47;3.10;;;;;;;6.18;55.38;99062.56;5077324;28;41788;-78
2023/04/27 02:05:54;;;;;;;4.57;3.50;;;;;;;6.20;56.72;99060.69;5097977;28;42362;-81
2023/04/27 02:08:22;;;;;;;5.53;4.07;;;;;;;6.21;57.04;99057.16;5080590;28;40105;-82
2023/04/27 02:10:49;;;;;;;5.07;3.40;;;;;;;6.24;55.91;99064.91;5081264;28;40647;-78
2023/04/27 02:13:18;;;;;;;6.50;3.77;;;;;;;6.25;55.71;99066.63;5097047;28;42657;-76
2023/04/27 02:15:47;;;;;;;5.37;3.07;;;;;;;6.17;55.31;99063.47;5097939;28;42403;-81
2023/04/27 02:18:16;;;;;;;3.50;3.00;;;;;;;6.22;55.62;99074.63;5080399;28;39904;-80
2023/04/27 02:20:44;;;;;;;5.83;3.30;;;;;;;6.15;55.29;99063.53;5080747;28;40640;-80
2023/04/27 02:23:12;;;;;;;4.87;3.50;;;;;;;6.09;55.09;99064.63;5080536;28;42812;-83
2023/04/27 02:25:41;;;;;;;4.87;2.70;;;;;;;6.13;55.08;99076.75;5097491;28;42372;-86
2023/04/27 02:28:09;;;;;;;4.90;3.23;;;;;;;6.05;55.00;99073.59;5080314;28;40396;-78
2023/04/27 02:30:38;;;;;;;4.20;2.53;;;;;;;6.09;54.97;99088.28;5097600;28;42699;-78
2023/04/27 02:33:08;;;;;;;3.10;2.43;;;;;;;6.04;55.17;99085.00;5080209;28;42797;-81
2023/04/27 02:35:35;;;;;;;4.43;2.93;;;;;;;6.08;55.59;99083.94;5080492;28;43461;-80
2023/04/27 02:38:03;;;;;;;4.33;2.73;;;;;;;6.02;55.45;99080.72;5097385;28;40738;-79
2023/04/27 02:40:30;;;;;;;4.30;2.90;;;;;;;6.05;55.62;99084.09;5080190;28;40867;-85
2023/04/27 02:42:58;;;;;;;3.20;2.67;;;;;;;6.06;55.51;99087.56;5079971;28;42819;-81
2023/04/27 02:45:27;;;;;;;4.63;2.73;;;;;;;5.91;55.37;99065.41;5096957;28;42293;-82
2023/04/27 02:47:55;;;;;;;3.13;2.53;;;;;;;6.02;55.18;99092.09;5080364;28;40888;-76
2023/04/27 02:50:24;;;;;;;2.83;2.10;;;;;;;5.92;55.01;99080.25;5097109;28;42639;-78
2023/04/27 02:52:52;;;;;;;2.50;2.30;;;;;;;6.02;55.21;99099.13;5115123;28;44248;-80
2023/04/27 02:55:20;;;;;;;4.00;2.43;;;;;;;6.00;55.37;99107.06;5079887;28;41219;-83
2023/04/27 02:57:48;;;;;;;2.93;2.37;;;;;;;5.99;55.06;99102.72;5080043;28;40963;-76
2023/04/27 03:00:16;;;;;;;2.90;2.60;;;;;;;5.96;55.00;99102.84;5079923;28;41676;-81
2023/04/27 03:02:44;;;;;;;4.13;2.33;;;;;;;5.91;55.15;99107.44;5096934;28;43450;-77
2023/04/27 03:05:11;;;;;;;4.87;2.40;;;;;;;5.85;55.24;99107.63;5096829;28;43095;-80
2023/04/27 03:07:41;;;;;;;2.90;2.57;;;;;;;5.80;55.28;99106.97;5096828;28;41087;-80
2023/04/27 03:10:10;;;;;;;2.77;2.50;;;;;;;5.76;55.67;99105.38;5079825;28;40492;-76
2023/04/27 03:12:37;;;;;;;3.83;2.77;;;;;;;5.76;55.97;99103.63;5079547;28;42222;-78
2023/04/27 03:15:06;;;;;;;3.40;2.30;;;;;;;5.66;55.60;99091.75;5079711;28;41168;-79
2023/04/27 03:17:37;;;;;;;3.13;2.10;;;;;;;5.80;55.61;99112.25;5112062;28;40746;-78
2023/04/27 03:20:08;;;;;;;2.43;2.00;;;;;;;5.79;55.54;99115.78;5096709;28;41815;-79
2023/04/27 03:22:36;;;;;;;3.23;2.57;;;;;;;5.88;55.54;99123.34;5096730;28;41583;-78
2023/04/27 03:25:06;;;;;;;4.30;2.53;;;;;;;5.92;55.35;99121.44;5079266;28;42400;-80
2023/04/27 03:27:34;;;;;;;4.87;2.67;;;;;;;5.88;55.31;99101.41;5096882;28;41410;-81
2023/04/27 03:30:02;;;;;;;2.43;1.83;;;;;;;5.97;55.25;99112.44;5079757;28;42110;-82
2023/04/27 03:32:31;;;;;;;2.93;2.53;;;;;;;6.02;55.42;99115.75;5096033;28;42008;-77
2023/04/27 03:34:58;;;;;;;4.07;2.50;;;;;;;6.05;55.41;99106.91;5096486;28;43321;-78
2023/04/27 03:37:27;;;;;;;2.73;2.10;;;;;;;6.06;55.41;99117.31;5079458;28;41005;-79
2023/04/27 03:39:54;;;;;;;3.37;2.60;;;;;;;6.07;55.35;99112.94;5114444;28;41850;-80
2023/04/27 03:42:23;;;;;;;3.07;2.63;;;;;;;6.07;55.30;99118.19;5079095;28;41861;-83
2023/04/27 03:44:51;;;;;;;2.90;2.60;;;;;;;6.02;55.76;99110.50;5096063;28;42410;-78
2023/04/27 03:47:19;;;;;;;3.83;2.90;;;;;;;6.05;55.60;99120.91;5079128;28;40120;-83
2023/04/27 03:49:47;;;;;;;2.40;2.20;;;;;;;6.01;55.86;99107.94;5079312;28;41769;-83
2023/04/27 03:52:15;;;;;;;2.70;2.30;;;;;;;5.97;55.82;99115.06;5079174;28;42932;-79
2023/04/27 03:54:43;;;;;;;3.70;2.57;;;;;;;5.91;55.84;99117.97;5095847;28;43335;-84
2023/04/27 03:57:12;;;;;;;3.37;2.83;;;;;;;5.82;55.91;99105.13;5079361;28;40172;-79
2023/04/27 03:59:41;;;;;;;2.13;1.93;;;;;;;5.80;55.97;99103.50;5095610;28;41685;-79
2023/04/27 04:02:10;;;;;;;4.33;2.43;;;;;;;5.74;56.43;99109.84;5095942;28;41844;-81
2023/04/27 04:04:38;;;;;;;4.53;2.30;;;;;;;5.69;56.62;99109.16;5095822;28;42960;-82
2023/04/27 04:07:06;;;;;;;2.80;2.13;;;;;;;5.63;56.62;99112.88;5079220;28;39930;-80
2023/04/27 04:09:33;;;;;;;3.27;2.50;;;;;;;5.59;56.41;99110.41;5095092;28;42959;-77
2023/04/27 04:12:02;;;;;;;2.77;2.47;;;;;;;5.56;56.73;99107.94;5095151;28;44086;-80
2023/04/27 04:14:30;;;;;;;3.73;2.73;;;;;;;5.52;56.68;99120.31;5094400;28;42321;-78
2023/04/27 04:16:59;;;;;;;3.53;2.87;;;;;;;5.52;56.74;99114.22;5077852;28;41300;-77
2023/04/27 04:19:27;;;;;;;3.63;2.60;;;;;;;5.56;57.07;99118.44;5094750;28;41784;-86
2023/04/27 04:21:56;;;;;;;4.53;2.67;;;;;;;5.58;56.98;99108.69;5094810;28;44084;-86
2023/04/27 04:24:24;;;;;;;3.77;2.57;;;;;;;5.56;56.99;99094.81;5078416;28;42379;-80
2023/04/27 04:26:52;;;;;;;3.77;2.37;;;;;;;5.61;57.13;99104.19;5095364;28;40856;-82
2023/04/27 04:29:20;;;;;;;3.47;2.50;;;;;;;5.63;57.55;99106.78;5095528;28;42655;-80
2023/04/27 04:31:48;;;;;;;4.50;3.03;;;;;;;5.63;57.97;99098.88;5078875;28;41720;-75
2023/04/27 04:34:18;;;;;;;3.27;2.67;;;;;;;5.65;57.98;99105.81;5094987;28;42327;-82
2023/04/27 04:36:46;;;;;;;3.00;2.77;;;;;;;5.67;57.79;99108.38;5095984;28;40850;-79
2023/04/27 04:39:13;;;;;;;3.50;2.67;;;;;;;5.65;57.57;99104.94;5078495;28;40770;-81
2023/04/27 04:41:41;;;;;;;4.00;3.07;;;;;;;5.73;57.62;99113.38;5096597;28;43840;-82
2023/04/27 04:44:12;;;;;;;4.17;2.87;;;;;;;5.83;57.42;99117.34;5079486;28;41260;-86
2023/04/27 04:46:40;;;;;;;4.83;2.57;;;;;;;5.95;57.28;99114.28;5078512;28;39773;-80
2023/04/27 04:49:08;;;;;;;3.47;2.47;;;;;;;6.07;57.54;99124.28;5095570;28;41662;-83
2023/04/27 04:51:42;;;;;;;3.10;2.73;;;;;;;6.19;57.59;99128.22;5095398;28;43644;-77
2023/04/27 04:54:10;;;;;;;5.50;3.60;;;;;;;6.26;59.29;99111.28;5078431;28;42227;-78
2023/04/27 04:56:38;;;;;;;4.10;3.20;;;;;;;6.41;58.42;99122.94;5095452;28;41491;-84
2023/04/27 04:59:05;;;;;;;3.13;2.73;;;;;;;6.52;58.56;99123.34;5077838;28;40362;-79
2023/04/27 05:01:33;;;;;;;3.37;2.90;;;;;;;6.64;58.72;99125.47;5078285;28;41742;-83
2023/04/27 05:04:01;;;;;;;3.57;2.87;;;;;;;6.75;58.66;99128.50;5060701;28;41258;-76
2023/04/27 05:06:29;;;;;;;4.80;3.27;;;;;;;6.81;59.40;99111.56;5064614;28;40304;-76
2023/04/27 05:08:58;;;;;;;7.03;3.53;;;;;;;6.97;58.91;99131.06;5075218;28;41670;-76
2023/04/27 05:11:25;;;;;;;5.27;3.27;;;;;;;6.93;59.18;99100.50;5090515;28;43571;-79
2023/04/27 05:13:53;;;;;;;3.27;2.93;;;;;;;7.16;59.65;99126.72;5104117;28;42133;-79
2023/04/27 05:16:21;;;;;;;4.83;3.57;;;;;;;7.25;59.75;99119.31;5074680;28;39486;-78
2023/04/27 05:18:48;;;;;;;5.00;3.40;;;;;;;7.28;59.63;99117.41;5091601;28;41795;-77
2023/04/27 05:21:19;;;;;;;4.73;3.30;;;;;;;7.44;59.16;99130.72;5090767;28;43093;-85
2023/04/27 05:23:47;;;;;;;5.90;4.00;;;;;;;7.54;60.03;99130.22;5093973;28;41681;-80
2023/04/27 05:26:17;;;;;;;5.00;3.53;;;;;;;7.64;60.14;99127.19;5098323;28;41036;-78
2023/04/27 05:28:48;;;;;;;6.67;3.43;;;;;;;7.74;59.66;99123.19;5110249;28;41732;-85
2023/04/27 05:31:15;;;;;;;4.83;3.50;;;;;;;7.80;60.41;99121.09;5094309;28;41783;-82
2023/04/27 05:33:43;;;;;;;3.93;3.13;;;;;;;7.90;59.82;99121.56;5085404;28;42567;-75
2023/04/27 05:36:11;;;;;;;6.10;3.60;;;;;;;8.02;59.80;99126.25;5094878;28;41048;-80
2023/04/27 05:38:39;;;;;;;6.60;3.77;;;;;;;8.14;59.16;99125.66;5093263;28;41425;-79
2023/04/27 05:41:06;;;;;;;7.87;4.23;;;;;;;8.24;59.42;99121.63;5111775;28;42833;-82
2023/04/27 05:43:37;;;;;;;5.63;3.70;;;;;;;8.40;59.49;99118.28;5111291;28;42269;-76
2023/04/27 05:46:05;;;;;;;5.80;4.60;;;;;;;8.48;59.29;99119.59;5113102;28;40850;-79
2023/04/27 05:48:33;;;;;;;7.37;3.70;;;;;;;8.68;59.21;99125.66;5112639;28;41654;-81
2023/04/27 05:51:01;;;;;;;7.53;5.17;;;;;;;8.78;59.09;99135.66;5111456;28;43648;-81
2023/04/27 05:53:30;;;;;;;4.87;4.10;;;;;;;8.89;58.77;99130.72;5112144;28;42404;-78
2023/04/27 05:55:59;;;;;;;6.37;4.13;;;;;;;9.02;58.58;99134.41;5077794;28;41282;-78
2023/04/27 05:58:27;;;;;;;7.70;4.87;;;;;;;9.16;58.16;99140.78;5094402;28;40576;-77
2023/04/27 06:00:56;;;;;;;5.03;4.03;;;;;;;9.31;58.16;99147.91;5094673;28;42885;-79
2023/04/27 06:03:24;;;;;;;5.63;4.10;;;;;;;9.47;58.05;99148.81;5112263;28;42395;-85
2023/04/27 06:05:55;;;;;;;6.97;4.90;;;;;;;9.63;57.21;99155.00;5112816;28;41090;-83
2023/04/27 06:08:22;;;;;;;5.50;3.90;;;;;;;9.81;56.95;99162.84;5111068;28;40648;-77
2023/04/27 06:10:51;;;;;;;8.03;4.57;;;;;;;9.99;57.44;99151.28;5111727;28;43990;-82
2023/04/27 06:13:20;;;;;;;7.13;5.60;;;;;;;10.17;56.72;99159.97;5112460;28;43395;-79
2023/04/27 06:15:47;;;;;;;6.83;4.40;;;;;;;10.30;55.61;99169.81;5112895;28;40849;-83
2023/04/27 06:18:17;;;;;;;6.87;4.50;;;;;;;10.47;55.16;99173.31;5111412;28;41817;-80
2023/04/27 06:20:45;;;;;;;6.97;3.97;;;;;;;10.63;54.75;99169.66;5113292;28;42767;-86
2023/04/27 06:23:13;;;;;;;6.37;3.93;;;;;;;10.80;54.94;99171.34;5112702;28;42285;-79
2023/04/27 06:25:40;;;;;;;5.33;3.40;;;;;;;10.95;53.97;99175.75;5111885;28;39983;-78
2023/04/27 06:28:08;;;;;;;7.40;4.00;;;;;;;11.09;53.66;99189.06;5112089;28;41871;-78
2023/04/27 06:30:36;;;;;;;7.10;3.93;;;;;;;11.18;52.44;99186.78;5112049;28;43502;-78
2023/04/27 06:33:04;;;;;;;5.00;3.63;;;;;;;11.22;52.19;99172.41;5094851;28;42298;-80
2023/04/27 06:35:33;;;;;;;7.07;3.90;;;;;;;11.53;51.77;99198.78;5111954;28;39954;-81
2023/04/27 06:38:00;;;;;;;5.10;3.70;;;;;;;11.63;51.75;99181.34;5112020;28;42715;-79
2023/04/27 06:40:28;;;;;;;4.50;3.30;;;;;;;11.90;51.26;99191.22;5111703;28;42976;-80
2023/04/27 06:42:56;;;;;;;5.80;3.80;;;;;;;12.19;50.58;99207.03;5111642;28;41562;-81
2023/04/27 06:45:24;;;;;;;5.47;3.50;;;;;;;12.46;50.69;99199.13;5112604;28;41071;-80
2023/04/27 06:47:51;;;;;;;6.40;3.17;;;;;;;12.71;50.00;99218.78;5112926;28;42033;-81
2023/04/27 06:50:19;;;;;;;4.77;3.37;;;;;;;12.90;49.40;99216.59;5114177;27;42869;-84
2023/04/27 06:52:48;;;;;;;6.00;3.70;;;;;;;13.06;48.61;99217.28;5097717;28;41392;-84
2023/04/27 06:55:16;;;;;;;5.43;3.23;;;;;;;13.16;47.62;99223.72;5115316;28;41581;-81
2023/04/27 06:57:44;;;;;;;4.40;3.57;;;;;;;13.26;47.66;99230.13;5097499;28;40848;-80
2023/04/27 07:00:13;;;;;;;3.73;3.30;;;;;;;13.25;46.64;99239.06;5115803;28;43105;-79
2023/04/27 07:02:40;;;;;;;4.67;2.97;;;;;;;13.35;47.21;99233.13;5114339;28;43319;-82
2023/04/27 07:05:08;;;;;;;8.70;3.80;;;;;;;13.35;46.15;99235.78;5115320;28;42075;-85
2023/04/27 07:07:36;;;;;;;4.53;2.83;;;;;;;13.43;47.00;99233.44;5097308;28;41099;-82
2023/04/27 07:10:07;;;;;;;6.50;3.70;;;;;;;13.86;48.08;99236.66;5114374;28;41595;-79
2023/04/27 07:12:35;;;;;;;4.97;3.10;;;;;;;14.37;47.17;99242.75;5096760;28;41343;-77
2023/04/27 07:15:05;;;;;;;7.23;3.40;;;;;;;14.80;45.31;99247.69;5112259;28;41458;-86
2023/04/27 07:17:34;;;;;;;5.23;2.97;;;;;;;15.11;44.66;99244.44;5098596;28;20677;-80
2023/04/27 07:20:04;;;;;;;3.40;3.10;;;;;;;15.31;43.50;99259.81;5097502;28;41651;-80
2023/04/27 07:22:32;;;;;;;4.90;2.70;;;;;;;15.12;42.42;99248.81;5115403;28;42013;-78
2023/04/27 07:25:00;;;;;;;4.57;2.90;;;;;;;15.34;43.50;99259.56;5114087;28;40049;-82
2023/04/27 07:27:30;;;;;;;5.57;2.67;;;;;;;15.20;41.88;99219.75;5114368;28;40676;-76
2023/04/27 07:29:58;;;;;;;5.07;2.67;;;;;;;15.70;42.09;99271.13;5115085;28;43731;-80
2023/04/27 07:32:26;;;;;;;5.10;2.87;;;;;;;15.76;40.85;99276.84;5114265;28;42957;-83
2023/04/27 07:34:55;;;;;;;5.57;3.00;;;;;;;15.81;42.12;99257.81;5097328;28;40071;-86
2023/04/27 07:37:23;;;;;;;5.80;3.30;;;;;;;15.90;40.83;99278.44;5114195;28;42686;-77
2023/04/27 07:39:52;;;;;;;5.33;2.73;;;;;;;16.09;41.03;99267.16;5115627;28;42847;-82
2023/04/27 07:42:21;;;;;;;5.63;3.17;;;;;;;16.52;38.64;99296.69;5099056;28;42736;-81
2023/04/27 07:44:50;;;;;;;3.93;2.50;;;;;;;17.06;38.92;99286.03;5115328;28;40993;-83
2023/04/27 07:47:18;;;;;;;6.40;2.33;;;;;;;17.82;38.60;99289.50;5115345;28;41549;-82
2023/04/27 07:49:46;;;;;;;4.63;2.67;;;;;;;18.82;35.33;99317.41;5096329;28;42019;-86
2023/04/27 07:52:14;;;;;;;5.83;2.93;;;;;;;19.68;34.58;99305.94;5113703;28;42372;-84
2023/04/27 07:54:42;;;;;;;3.50;2.33;;;;;;;19.99;35.47;99306.63;5113564;28;41848;-79
2023/04/27 07:57:10;;;;;;;7.17;2.73;;;;;;;19.91;32.44;99314.56;5114861;28;42452;-82
2023/04/27 07:59:39;;;;;;;4.10;2.60;;;;;;;20.24;33.30;99308.69;5113480;28;42641;-77
2023/04/27 08:02:08;;;;;;;4.93;2.60;;;;;;;20.72;32.71;99318.47;5112270;27;41226;-86
2023/04/27 08:04:35;;;;;;;6.73;2.77;;;;;;;20.94;33.58;99307.28;5079407;28;40076;-87
2023/04/27 08:07:03;;;;;;;4.77;2.60;;;;;;;21.39;31.23;99318.06;5115001;28;41545;-85
2023/04/27 08:09:31;;;;;;;5.27;2.67;;;;;;;22.34;31.01;99314.66;5096399;28;43449;-84
2023/04/27 08:12:01;;;;;;;3.20;2.63;;;;;;;23.10;31.12;99312.00;5114592;28;42355;-80
2023/04/27 08:14:29;;;;;;;4.27;2.50;;;;;;;23.13;30.37;99308.97;5096034;28;39790;-84
2023/04/27 08:16:56;;;;;;;5.30;2.57;;;;;;;22.73;28.53;99325.00;5113175;28;41790;-83
2023/04/27 08:19:25;;;;;;;5.77;3.00;;;;;;;22.68;30.49;99324.63;5113169;28;43689;-79
2023/04/27 08:21:53;;;;;;;5.63;3.00;;;;;;;22.68;29.36;99316.53;5112765;28;42273;-82
2023/04/27 08:24:21;;;;;;;4.63;2.80;;;;;;;22.57;29.90;99323.91;5096333;28;41303;-83
2023/04/27 08:26:48;;;;;;;3.13;2.40;;;;;;;22.64;29.55;99331.34;5096693;28;41862;-83
2023/04/27 08:29:17;;;;;;;5.50;2.53;;;;;;;23.05;29.69;99325.16;5116579;28;42438;-84
2023/04/27 08:31:44;;;;;;;8.60;3.33;;;;;;;23.45;28.36;99337.09;5116333;28;42481;-81
2023/04/27 08:34:12;;;;;;;5.27;3.67;;;;;;;23.72;27.70;99344.94;5096338;28;41158;-78
2023/04/27 08:36:42;;;;;;;4.97;2.50;;;;;;;23.78;27.51;99338.84;5115047;28;41822;-85
2023/04/27 08:39:09;;;;;;;3.80;2.60;;;;;;;23.94;26.27;99338.84;5117294;28;42823;-79
2023/04/27 08:41:42;;;;;;;3.73;2.63;;;;;;;24.55;26.60;99331.19;5117833;28;42018;-82
2023/04/27 08:44:10;;;;;;;5.67;3.20;;;;;;;24.80;25.85;99334.66;5112679;28;40866;-82
2023/04/27 08:46:38;;;;;;;3.80;3.10;;;;;;;24.36;25.11;99337.81;5096054;28;41004;-78
2023/04/27 08:49:06;;;;;;;4.27;2.60;;;;;;;24.38;26.30;99324.97;5095738;28;42828;-81
2023/04/27 08:51:34;;;;;;;7.20;3.33;;;;;;;24.43;25.54;99340.69;5095551;28;41213;-82
2023/04/27 08:54:04;;;;;;;2.80;2.27;;;;;;;24.61;28.09;99304.25;5095637;28;41818;-77
2023/04/27 08:56:32;;;;;;;4.87;2.87;;;;;;;25.16;27.20;99306.06;5078324;28;42247;-80
2023/04/27 08:59:03;;;;;;;5.57;2.93;;;;;;;25.63;26.27;99315.97;5095144;28;43820;-80
2023/04/27 09:01:31;;;;;;;5.07;3.60;;;;;;;26.27;25.83;99308.28;5112351;28;42321;-83
2023/04/27 09:04:00;;;;;;;6.33;2.63;;;;;;;26.71;25.18;99319.19;5112151;28;40967;-79
2023/04/27 09:06:32;;;;;;;4.47;3.03;;;;;;;27.96;23.56;99320.69;5095146;28;42273;-82
2023/04/27 09:09:00;;;;;;;4.10;2.80;;;;;;;28.89;23.61;99311.34;5112340;28;42112;-83
2023/04/27 09:11:31;;;;;;;4.73;3.37;;;;;;;29.63;21.37;99328.66;5095558;28;41536;-80
2023/04/27 09:14:00;;;;;;;5.23;3.30;;;;;;;30.61;20.08;99329.75;5111421;27;39909;-77
2023/04/27 09:16:30;;;;;;;4.80;3.43;;;;;;;31.06;20.96;99338.03;5112252;28;41754;-79
2023/04/27 09:18:59;;;;;;;4.73;2.97;;;;;;;32.33;19.69;99332.50;5113236;28;42852;-79
2023/04/27 09:21:28;;;;;;;4.45;2.85;;;;;;;34.09;18.06;99339.88;5113465;28;43055;-80
2023/04/27 09:23:56;;;;;;;5.05;3.00;;;;;;;35.31;17.12;99345.50;5113238;28;41909;-82
2023/04/27 09:26:26;;;;;;;4.25;3.22;;;;;;;36.35;16.67;99335.91;5095082;28;41936;-77
2023/04/27 09:28:58;;;;;;;4.15;2.70;;;;;;;36.95;15.54;99348.97;5111165;28;42886;-80
2023/04/27 09:31:31;;;;;;;5.18;2.85;;;;;;;37.04;15.32;99336.38;5111733;28;43368;-80
2023/04/27 09:34:05;;;;;;;5.60;3.15;;;;;;;36.39;15.37;99330.72;5111751;28;40610;-83
2023/04/27 09:36:37;;;;;;;3.53;3.03;;;;;;;36.03;16.08;99326.50;5112952;28;42321;-77
2023/04/27 09:39:05;;;;;;;5.22;3.50;;;;;;;35.70;16.49;99317.06;5092687;28;43729;-81
2023/04/27 09:41:33;;;;;;;3.92;3.30;;;;;;;34.90;15.84;99317.06;5111338;28;41430;-81
2023/04/27 09:44:03;;;;;;;5.25;3.47;;;;;;;33.80;16.97;99295.72;5111703;28;40958;-79
2023/04/27 09:46:33;;;;;;;5.03;3.67;;;;;;;32.83;16.80;99310.50;5111804;28;41856;-81
2023/04/27 09:49:05;;;;;;;4.87;3.97;;;;;;;32.11;17.98;99273.63;5111686;28;41806;-78
2023/04/27 09:51:34;;;;;;;5.90;4.17;;;;;;;32.52;19.02;99280.44;5094920;28;41718;-80
2023/04/27 09:54:10;;;;;;;4.47;3.63;;;;;;;32.71;17.94;99293.97;5101535;28;42712;-79
2023/04/27 09:56:52;;;;;;;5.17;3.80;;;;;;;32.45;19.13;99275.00;5111985;28;40940;-80
2023/04/27 09:59:41;;;;;;;6.17;3.40;;;;;;;31.67;18.94;99289.13;5110875;28;43156;-81
2023/04/27 10:02:19;;;;;;;4.30;3.60;;;;;;;30.91;19.53;99283.59;5110016;28;42081;-81
2023/04/27 10:05:07;;;;;;;5.17;3.50;;;;;;;30.30;20.65;99256.59;5111845;28;41238;-79
2023/04/27 10:07:35;;;;;;;4.57;3.70;;;;;;;29.82;21.21;99249.69;5109404;28;41852;-79
2023/04/27 10:10:04;;;;;;;5.37;3.40;;;;;;;29.53;20.71;99257.25;5111292;28;42840;-80
2023/04/27 10:12:35;;;;;;;7.07;4.50;;;;;;;29.46;20.62;99256.38;5093678;28;40981;-80
2023/04/27 10:15:14;;;;;;;5.40;3.83;;;;;;;29.15;22.44;99250.63;5111175;28;40780;-77
2023/04/27 10:17:48;;;;;;;5.70;3.80;;;;;;;28.85;20.93;99259.09;5111224;28;40695;-79
2023/04/27 10:20:16;;;;;;;3.90;3.40;;;;;;;28.27;22.53;99246.81;5094002;28;41545;-79
2023/04/27 10:22:45;;;;;;;5.90;3.50;;;;;;;27.80;23.60;99233.88;5111335;28;41225;-79
2023/04/27 10:25:17;;;;;;;4.83;3.60;;;;;;;27.33;23.00;99246.16;5112534;27;40895;-79
2023/04/27 10:27:48;;;;;;;4.23;3.20;;;;;;;27.04;23.54;99235.41;5112819;28;42068;-78
2023/04/27 10:30:20;;;;;;;5.73;3.37;;;;;;;26.84;22.60;99246.00;5114547;28;41742;-85
2023/04/27 10:32:52;;;;;;;4.97;3.37;;;;;;;26.63;22.82;99245.94;5111906;28;42309;-84
2023/04/27 10:35:21;;;;;;;6.53;4.33;;;;;;;26.70;23.22;99231.44;5097977;28;40834;-83
2023/04/27 10:37:51;;;;;;;5.37;4.30;;;;;;;26.68;22.90;99244.34;5116133;28;41760;-80
2023/04/27 10:40:18;;;;;;;6.00;3.50;;;;;;;26.45;23.13;99235.50;5097278;28;42925;-77
2023/04/27 10:42:48;;;;;;;5.63;4.50;;;;;;;27.17;22.86;99230.13;5114659;28;42617;-81
2023/04/27 10:45:28;;;;;;;8.17;3.70;;;;;;;28.26;21.78;99233.41;5114517;28;42252;-79
2023/04/27 10:51:51;;;;;;;4.50;3.73;;;;;;;32.08;19.54;99235.72;5107845;28;41828;-77
2023/04/27 10:54:18;;;;;;;7.63;3.63;;;;;;;33.58;17.75;99245.09;5114289;28;42159;-78
2023/04/27 10:56:46;;;;;;;5.17;3.60;;;;;;;34.23;15.98;99269.84;5114465;28;40069;-79
2023/04/27 10:59:13;;;;;;;5.97;3.50;;;;;;;34.38;15.97;99261.97;5107442;28;40721;-81
2023/04/27 11:01:42;;;;;;;5.38;4.20;;;;;;;34.43;16.65;99259.34;5113943;28;42623;-80
2023/04/27 11:04:10;;;;;;;4.18;3.17;;;;;;;34.79;16.90;99249.13;5115386;28;42050;-78
2023/04/27 11:06:45;;;;;;;3.63;2.70;;;;;;;35.37;17.13;99239.84;5096913;28;40287;-79
2023/04/27 11:09:13;;;;;;;3.47;3.00;;;;;;;35.76;14.47;99271.16;5113865;28;41012;-77
2023/04/27 11:11:45;;;;;;;5.45;3.33;;;;;;;35.37;16.08;99251.69;5114015;28;41928;-80
2023/04/27 11:14:19;;;;;;;4.60;3.63;;;;;;;33.63;16.33;99250.72;5113164;28;43245;-78
2023/04/27 11:16:49;;;;;;;6.93;4.03;;;;;;;33.31;16.63;99252.91;5113760;28;39916;-81
2023/04/27 11:19:16;;;;;;;4.70;3.37;;;;;;;33.64;16.72;99246.91;5113607;28;40965;-79
2023/04/27 11:21:44;;;;;;;7.03;3.70;;;;;;;34.11;15.95;99258.00;5115127;28;43978;-77
2023/04/27 11:24:11;;;;;;;5.10;3.50;;;;;;;34.03;16.47;99244.59;5104132;28;41121;-78
2023/04/27 11:26:39;;;;;;;4.90;4.10;;;;;;;33.53;16.19;99255.94;5113652;28;39804;-79
2023/04/27 11:29:15;;;;;;;4.33;3.23;;;;;;;33.48;17.52;99239.34;5113506;28;41685;-80
2023/04/27 11:31:46;;;;;;;5.97;4.00;;;;;;;33.49;16.70;99239.13;5079183;28;41792;-78
2023/04/27 12:11:46;;;;;;;6.40;3.87;;;;;;;34.54;15.86;99225.47;5133527;27;42693;-78
2023/04/27 12:18:42;;;;;;;5.13;3.60;;;;;;;33.38;16.07;99226.16;5111191;28;44027;-78
2023/04/27 12:21:10;;;;;;;4.13;3.40;;;;;;;33.52;17.19;99202.91;5094898;28;41013;-78
2023/04/27 12:23:38;;;;;;;5.03;3.77;;;;;;;33.41;16.67;99213.88;5131297;27;40881;-80
2023/04/27 12:26:09;;;;;;;7.23;4.30;;;;;;;32.45;17.09;99215.53;5133255;27;40948;-79
2023/04/27 12:28:42;;;;;;;6.30;3.93;;;;;;;31.95;18.09;99208.44;5133015;27;41695;-77
2023/04/27 12:31:13;;;;;;;4.33;3.87;;;;;;;32.37;18.24;99202.13;5115932;27;42273;-76
2023/04/27 12:33:41;;;;;;;4.43;3.93;;;;;;;32.76;16.22;99222.75;5132495;27;41255;-79